sensor_id;sensor_type;location;lat;lon;timestamp;temperature;humidity
9941;DHT22;5009;50.656;7.188;2023-03-03T05:00:33;1.40;99.90
9941;DHT22;5009;50.656;7.188;2023-03-03T05:02:59;1.30;99.90
9941;DHT22;5009;50.656;7.188;2023-03-03T05:05:24;1.40;99.90
9941;DHT22;5009;50.656;7.188;2023-03-03T05:07:50;1.40;99.90
9941;DHT22;5009;50.656;7.188;2023-03-03T05:10:15;1.40;99.90
9941;DHT22;5009;50.656;7.188;2023-03-03T05:12:42;1.50;99.90
9941;DHT22;5009;50.656;7.188;2023-03-03T05:15:08;1.50;99.90
9941;DHT22;5009;50.656;7.188;2023-03-03T05:17:33;1.50;99.90
9941;DHT22;5009;50.656;7.188;2023-03-03T05:19:59;1.40;99.90
9941;DHT22;5009;50.656;7.188;2023-03-03T05:22:24;1.50;99.90
9941;DHT22;5009;50.656;7.188;2023-03-03T05:24:51;1.50;99.90
9941;DHT22;5009;50.656;7.188;2023-03-03T05:27:18;1.60;99.90
9941;DHT22;5009;50.656;7.188;2023-03-03T05:29:43;1.60;99.90
9941;DHT22;5009;50.656;7.188;2023-03-03T05:32:09;1.60;99.90
9941;DHT22;5009;50.656;7.188;2023-03-03T05:34:35;1.60;99.90
9941;DHT22;5009;50.656;7.188;2023-03-03T05:37:00;1.60;99.90
9941;DHT22;5009;50.656;7.188;2023-03-03T05:39:28;1.60;99.90
9941;DHT22;5009;50.656;7.188;2023-03-03T05:41:53;1.60;99.90
9941;DHT22;5009;50.656;7.188;2023-03-03T05:44:20;1.70;99.90
9941;DHT22;5009;50.656;7.188;2023-03-03T05:46:45;1.70;99.90
9941;DHT22;5009;50.656;7.188;2023-03-03T05:49:11;1.70;99.90
9941;DHT22;5009;50.656;7.188;2023-03-03T05:51:36;1.80;99.90
9941;DHT22;5009;50.656;7.188;2023-03-03T05:54:02;1.80;99.90
9941;DHT22;5009;50.656;7.188;2023-03-03T05:56:28;1.70;99.90
9941;DHT22;5009;50.656;7.188;2023-03-03T05:58:53;1.80;99.90
9941;DHT22;5009;50.656;7.188;2023-03-03T06:02:41;1.80;99.90
9941;DHT22;5009;50.656;7.188;2023-03-03T06:05:07;1.80;99.90
9941;DHT22;5009;50.656;7.188;2023-03-03T06:07:33;1.80;99.90
9941;DHT22;5009;50.656;7.188;2023-03-03T06:09:59;1.80;99.90
9941;DHT22;5009;50.656;7.188;2023-03-03T06:12:24;1.80;99.90
9941;DHT22;5009;50.656;7.188;2023-03-03T06:14:50;1.90;99.90
9941;DHT22;5009;50.656;7.188;2023-03-03T06:17:15;1.90;99.90
9941;DHT22;5009;50.656;7.188;2023-03-03T06:19:41;1.90;99.90
9941;DHT22;5009;50.656;7.188;2023-03-03T06:22:07;1.80;99.90
9941;DHT22;5009;50.656;7.188;2023-03-03T06:24:33;1.80;99.90
9941;DHT22;5009;50.656;7.188;2023-03-03T06:26:59;1.90;99.90
9941;DHT22;5009;50.656;7.188;2023-03-03T06:29:26;1.90;99.90
9941;DHT22;5009;50.656;7.188;2023-03-03T06:31:52;1.90;99.90
9941;DHT22;5009;50.656;7.188;2023-03-03T06:34:18;1.80;99.90
9941;DHT22;5009;50.656;7.188;2023-03-03T06:36:44;1.80;99.90
9941;DHT22;5009;50.656;7.188;2023-03-03T06:39:10;1.70;99.90
9941;DHT22;5009;50.656;7.188;2023-03-03T06:41:35;1.60;99.90
9941;DHT22;5009;50.656;7.188;2023-03-03T06:44:01;1.70;99.90
9941;DHT22;5009;50.656;7.188;2023-03-03T06:46:27;1.80;99.90
9941;DHT22;5009;50.656;7.188;2023-03-03T06:48:53;1.80;99.90
9941;DHT22;5009;50.656;7.188;2023-03-03T06:51:35;1.80;99.90
9941;DHT22;5009;50.656;7.188;2023-03-03T06:54:13;1.90;99.90
9941;DHT22;5009;50.656;7.188;2023-03-03T06:56:40;1.80;99.90
9941;DHT22;5009;50.656;7.188;2023-03-03T06:59:16;1.80;99.90
9941;DHT22;5009;50.656;7.188;2023-03-03T07:01:44;1.80;99.90
9941;DHT22;5009;50.656;7.188;2023-03-03T07:04:33;1.80;99.90
9941;DHT22;5009;50.656;7.188;2023-03-03T07:07:09;1.90;99.90
9941;DHT22;5009;50.656;7.188;2023-03-03T07:09:35;1.80;99.90
9941;DHT22;5009;50.656;7.188;2023-03-03T07:12:09;1.90;99.90
9941;DHT22;5009;50.656;7.188;2023-03-03T07:14:42;1.90;99.90
9941;DHT22;5009;50.656;7.188;2023-03-03T07:17:15;1.90;99.90
9941;DHT22;5009;50.656;7.188;2023-03-03T07:19:42;1.90;99.90
9941;DHT22;5009;50.656;7.188;2023-03-03T07:24:36;1.80;99.90
9941;DHT22;5009;50.656;7.188;2023-03-03T07:27:08;1.80;99.90
9941;DHT22;5009;50.656;7.188;2023-03-03T07:29:36;1.80;99.90
9941;DHT22;5009;50.656;7.188;2023-03-03T07:32:53;1.70;99.90
9941;DHT22;5009;50.656;7.188;2023-03-03T07:34:59;1.70;99.90
9941;DHT22;5009;50.656;7.188;2023-03-03T07:37:30;1.70;99.90
9941;DHT22;5009;50.656;7.188;2023-03-03T07:39:59;1.80;99.90
9941;DHT22;5009;50.656;7.188;2023-03-03T07:42:54;1.80;99.90
9941;DHT22;5009;50.656;7.188;2023-03-03T07:45:26;1.80;99.90
9941;DHT22;5009;50.656;7.188;2023-03-03T07:48:14;1.80;99.90
9941;DHT22;5009;50.656;7.188;2023-03-03T07:50:41;1.90;99.90
9941;DHT22;5009;50.656;7.188;2023-03-03T07:53:36;1.90;99.90
9941;DHT22;5009;50.656;7.188;2023-03-03T07:56:11;1.90;99.90
9941;DHT22;5009;50.656;7.188;2023-03-03T07:58:40;1.90;99.90
9941;DHT22;5009;50.656;7.188;2023-03-03T08:03:54;1.90;99.90
9941;DHT22;5009;50.656;7.188;2023-03-03T08:06:48;1.90;99.90
9941;DHT22;5009;50.656;7.188;2023-03-03T08:12:11;1.90;99.90
9941;DHT22;5009;50.656;7.188;2023-03-03T08:14:39;2.00;99.90
9941;DHT22;5009;50.656;7.188;2023-03-03T08:17:25;2.10;99.90
9941;DHT22;5009;50.656;7.188;2023-03-03T08:19:53;2.10;99.90
9941;DHT22;5009;50.656;7.188;2023-03-03T08:22:30;2.20;99.90
9941;DHT22;5009;50.656;7.188;2023-03-03T08:24:57;2.20;99.90
9941;DHT22;5009;50.656;7.188;2023-03-03T08:27:23;2.20;99.90
9941;DHT22;5009;50.656;7.188;2023-03-03T08:29:48;2.10;99.90
9941;DHT22;5009;50.656;7.188;2023-03-03T08:32:14;2.10;99.90
9941;DHT22;5009;50.656;7.188;2023-03-03T08:34:40;2.10;99.90
9941;DHT22;5009;50.656;7.188;2023-03-03T08:37:05;2.20;99.90
9941;DHT22;5009;50.656;7.188;2023-03-03T08:39:31;2.20;99.90
9941;DHT22;5009;50.656;7.188;2023-03-03T08:41:57;2.30;99.90
9941;DHT22;5009;50.656;7.188;2023-03-03T08:44:22;2.40;99.90
9941;DHT22;5009;50.656;7.188;2023-03-03T08:46:48;2.40;99.90
9941;DHT22;5009;50.656;7.188;2023-03-03T08:49:14;2.40;99.90
9941;DHT22;5009;50.656;7.188;2023-03-03T08:51:39;2.40;99.90
9941;DHT22;5009;50.656;7.188;2023-03-03T08:54:05;2.40;99.90
9941;DHT22;5009;50.656;7.188;2023-03-03T08:56:31;2.40;99.90
9941;DHT22;5009;50.656;7.188;2023-03-03T08:58:56;2.40;99.90
9941;DHT22;5009;50.656;7.188;2023-03-03T09:02:43;2.30;99.90
9941;DHT22;5009;50.656;7.188;2023-03-03T09:05:10;2.40;99.90
9941;DHT22;5009;50.656;7.188;2023-03-03T09:07:37;2.40;99.90
9941;DHT22;5009;50.656;7.188;2023-03-03T09:10:02;2.40;99.90
9941;DHT22;5009;50.656;7.188;2023-03-03T09:12:33;2.50;99.90
9941;DHT22;5009;50.656;7.188;2023-03-03T09:18:09;2.60;99.90
9941;DHT22;5009;50.656;7.188;2023-03-03T09:20:39;2.60;99.90
9941;DHT22;5009;50.656;7.188;2023-03-03T09:23:27;2.70;99.90
9941;DHT22;5009;50.656;7.188;2023-03-03T09:25:53;2.70;99.90
9941;DHT22;5009;50.656;7.188;2023-03-03T09:28:27;2.70;99.90
9941;DHT22;5009;50.656;7.188;2023-03-03T09:30:55;2.80;99.90
9941;DHT22;5009;50.656;7.188;2023-03-03T09:33:26;2.80;99.90
9941;DHT22;5009;50.656;7.188;2023-03-03T09:36:00;2.80;99.90
9941;DHT22;5009;50.656;7.188;2023-03-03T09:41:31;2.70;99.90
9941;DHT22;5009;50.656;7.188;2023-03-03T09:55:40;2.70;99.90
9941;DHT22;5009;50.656;7.188;2023-03-03T10:03:58;3.00;99.90
9941;DHT22;5009;50.656;7.188;2023-03-03T10:09:40;3.20;99.90
9941;DHT22;5009;50.656;7.188;2023-03-03T10:13:13;3.10;99.90
9941;DHT22;5009;50.656;7.188;2023-03-03T10:21:07;3.00;99.90
9941;DHT22;5009;50.656;7.188;2023-03-03T10:40:02;2.80;99.90
9941;DHT22;5009;50.656;7.188;2023-03-03T10:48:14;2.60;99.90
9941;DHT22;5009;50.656;7.188;2023-03-03T10:50:55;2.70;99.90
9941;DHT22;5009;50.656;7.188;2023-03-03T10:53:46;2.90;99.90
9941;DHT22;5009;50.656;7.188;2023-03-03T10:56:31;3.00;99.90
9941;DHT22;5009;50.656;7.188;2023-03-03T11:04:38;3.40;99.90
9941;DHT22;5009;50.656;7.188;2023-03-03T11:07:28;3.50;99.90
9941;DHT22;5009;50.656;7.188;2023-03-03T11:12:42;3.60;99.90
9941;DHT22;5009;50.656;7.188;2023-03-03T11:15:45;3.60;99.90
9941;DHT22;5009;50.656;7.188;2023-03-03T11:18:14;3.70;99.90
9941;DHT22;5009;50.656;7.188;2023-03-03T11:29:46;3.80;99.90
9941;DHT22;5009;50.656;7.188;2023-03-03T11:32:31;3.90;99.90
9941;DHT22;5009;50.656;7.188;2023-03-03T11:35:08;4.00;99.90
9941;DHT22;5009;50.656;7.188;2023-03-03T11:38:00;4.00;99.90
9941;DHT22;5009;50.656;7.188;2023-03-03T11:40:54;4.10;99.90
9941;DHT22;5009;50.656;7.188;2023-03-03T11:43:37;4.00;99.90
9941;DHT22;5009;50.656;7.188;2023-03-03T11:46:10;4.20;99.90
9941;DHT22;5009;50.656;7.188;2023-03-03T11:48:59;4.30;99.90
9941;DHT22;5009;50.656;7.188;2023-03-03T11:54:21;4.40;99.90
9941;DHT22;5009;50.656;7.188;2023-03-03T11:56:48;4.40;99.70
9941;DHT22;5009;50.656;7.188;2023-03-03T12:04:58;4.50;99.20
9941;DHT22;5009;50.656;7.188;2023-03-03T12:10:29;4.30;99.90
9941;DHT22;5009;50.656;7.188;2023-03-03T12:13:04;4.40;99.90
9941;DHT22;5009;50.656;7.188;2023-03-03T12:24:17;4.30;99.70
9941;DHT22;5009;50.656;7.188;2023-03-03T12:26:58;4.40;99.60
9941;DHT22;5009;50.656;7.188;2023-03-03T12:29:40;4.60;99.40
9941;DHT22;5009;50.656;7.188;2023-03-03T12:35:19;4.90;98.40
9941;DHT22;5009;50.656;7.188;2023-03-03T12:40:34;5.20;97.30
9941;DHT22;5009;50.656;7.188;2023-03-03T12:46:05;5.30;97.00
9941;DHT22;5009;50.656;7.188;2023-03-03T12:48:39;5.30;96.70
9941;DHT22;5009;50.656;7.188;2023-03-03T12:54:07;5.40;96.40
9941;DHT22;5009;50.656;7.188;2023-03-03T12:56:52;5.30;96.20
9941;DHT22;5009;50.656;7.188;2023-03-03T13:02:19;5.50;95.50
9941;DHT22;5009;50.656;7.188;2023-03-03T13:04:55;5.40;95.40
9941;DHT22;5009;50.656;7.188;2023-03-03T13:10:04;5.30;95.40
9941;DHT22;5009;50.656;7.188;2023-03-03T13:12:47;5.40;95.90
9941;DHT22;5009;50.656;7.188;2023-03-03T13:23:07;5.80;94.80
9941;DHT22;5009;50.656;7.188;2023-03-03T13:28:17;5.80;93.60
9941;DHT22;5009;50.656;7.188;2023-03-03T13:30:51;5.70;94.10
9941;DHT22;5009;50.656;7.188;2023-03-03T13:33:29;5.60;94.30
9941;DHT22;5009;50.656;7.188;2023-03-03T13:36:06;5.50;94.30
9941;DHT22;5009;50.656;7.188;2023-03-03T13:38:38;5.50;94.70
9941;DHT22;5009;50.656;7.188;2023-03-03T13:41:23;5.50;94.60
9941;DHT22;5009;50.656;7.188;2023-03-03T13:54:48;5.50;94.30
9941;DHT22;5009;50.656;7.188;2023-03-03T14:03:15;5.20;95.20
9941;DHT22;5009;50.656;7.188;2023-03-03T14:05:48;5.30;95.20
9941;DHT22;5009;50.656;7.188;2023-03-03T14:14:10;5.20;95.30
9941;DHT22;5009;50.656;7.188;2023-03-03T14:16:49;5.20;95.20
9941;DHT22;5009;50.656;7.188;2023-03-03T14:25:16;5.30;95.20
9941;DHT22;5009;50.656;7.188;2023-03-03T14:33:03;5.40;95.00
9941;DHT22;5009;50.656;7.188;2023-03-03T14:38:51;5.60;94.80
9941;DHT22;5009;50.656;7.188;2023-03-03T14:41:18;5.60;94.90
9941;DHT22;5009;50.656;7.188;2023-03-03T14:46:33;5.60;94.90
9941;DHT22;5009;50.656;7.188;2023-03-03T14:49:03;5.70;94.90
9941;DHT22;5009;50.656;7.188;2023-03-03T14:51:49;5.60;94.70
9941;DHT22;5009;50.656;7.188;2023-03-03T14:54:27;5.70;94.70
9941;DHT22;5009;50.656;7.188;2023-03-03T14:57:14;5.70;94.70
9941;DHT22;5009;50.656;7.188;2023-03-03T14:59:44;5.70;94.60
9941;DHT22;5009;50.656;7.188;2023-03-03T15:04:45;5.70;94.90
9941;DHT22;5009;50.656;7.188;2023-03-03T15:07:36;5.70;95.00
9941;DHT22;5009;50.656;7.188;2023-03-03T15:10:03;5.80;95.10
9941;DHT22;5009;50.656;7.188;2023-03-03T15:17:37;5.80;94.70
9941;DHT22;5009;50.656;7.188;2023-03-03T15:20:44;5.80;94.60
9941;DHT22;5009;50.656;7.188;2023-03-03T15:26:03;5.90;94.50
9941;DHT22;5009;50.656;7.188;2023-03-03T15:34:01;5.80;94.20
9941;DHT22;5009;50.656;7.188;2023-03-03T15:39:27;5.80;94.20
9941;DHT22;5009;50.656;7.188;2023-03-03T15:42:10;5.80;94.00
9941;DHT22;5009;50.656;7.188;2023-03-03T15:44:57;5.70;94.00
9941;DHT22;5009;50.656;7.188;2023-03-03T15:47:51;5.60;93.90
9941;DHT22;5009;50.656;7.188;2023-03-03T15:50:30;5.60;94.20
9941;DHT22;5009;50.656;7.188;2023-03-03T15:53:09;5.60;94.20
9941;DHT22;5009;50.656;7.188;2023-03-03T15:56:13;5.50;94.10
9941;DHT22;5009;50.656;7.188;2023-03-03T15:59:17;5.40;94.30
9941;DHT22;5009;50.656;7.188;2023-03-03T16:01:52;5.40;94.40
9941;DHT22;5009;50.656;7.188;2023-03-03T16:04:30;5.40;94.40
9941;DHT22;5009;50.656;7.188;2023-03-03T16:07:29;5.40;94.40
9941;DHT22;5009;50.656;7.188;2023-03-03T16:12:58;5.20;94.70
9941;DHT22;5009;50.656;7.188;2023-03-03T16:15:45;5.20;94.90
9941;DHT22;5009;50.656;7.188;2023-03-03T16:21:30;5.10;95.00
9941;DHT22;5009;50.656;7.188;2023-03-03T16:24:19;5.10;95.20
9941;DHT22;5009;50.656;7.188;2023-03-03T16:26:56;5.10;95.30
9941;DHT22;5009;50.656;7.188;2023-03-03T16:32:50;5.00;95.40
9941;DHT22;5009;50.656;7.188;2023-03-03T16:35:26;4.90;95.30
9941;DHT22;5009;50.656;7.188;2023-03-03T16:46:20;4.80;95.60
9941;DHT22;5009;50.656;7.188;2023-03-03T16:51:55;4.70;95.70
9941;DHT22;5009;50.656;7.188;2023-03-03T16:54:33;4.60;95.80
9941;DHT22;5009;50.656;7.188;2023-03-03T17:05:05;4.30;96.50
9941;DHT22;5009;50.656;7.188;2023-03-03T17:08:11;4.20;96.70
9941;DHT22;5009;50.656;7.188;2023-03-03T17:14:03;4.10;97.20
9941;DHT22;5009;50.656;7.188;2023-03-03T17:16:47;4.00;97.30
9941;DHT22;5009;50.656;7.188;2023-03-03T17:22:44;3.90;97.90
9941;DHT22;5009;50.656;7.188;2023-03-03T17:25:21;3.80;98.30
9941;DHT22;5009;50.656;7.188;2023-03-03T17:30:56;3.80;98.70
9941;DHT22;5009;50.656;7.188;2023-03-03T17:33:29;3.70;98.80
9941;DHT22;5009;50.656;7.188;2023-03-03T17:36:28;3.60;98.80
9941;DHT22;5009;50.656;7.188;2023-03-03T17:39:31;3.60;99.00
9941;DHT22;5009;50.656;7.188;2023-03-03T17:42:07;3.30;99.90
9941;DHT22;5009;50.656;7.188;2023-03-03T17:44:49;3.20;99.90
9941;DHT22;5009;50.656;7.188;2023-03-03T17:56:08;3.20;99.90
9941;DHT22;5009;50.656;7.188;2023-03-03T18:04:17;3.20;99.90
9941;DHT22;5009;50.656;7.188;2023-03-03T18:15:50;3.10;99.90
9941;DHT22;5009;50.656;7.188;2023-03-03T18:21:01;2.90;99.90
9941;DHT22;5009;50.656;7.188;2023-03-03T18:26:00;2.80;99.90
9941;DHT22;5009;50.656;7.188;2023-03-03T18:28:46;2.60;99.90
9941;DHT22;5009;50.656;7.188;2023-03-03T18:38:21;2.60;99.90
9941;DHT22;5009;50.656;7.188;2023-03-03T18:41:09;2.60;99.90
9941;DHT22;5009;50.656;7.188;2023-03-03T18:48:57;2.40;99.90
9941;DHT22;5009;50.656;7.188;2023-03-03T18:54:23;2.40;99.90
9941;DHT22;5009;50.656;7.188;2023-03-03T19:04:43;2.40;99.90
9941;DHT22;5009;50.656;7.188;2023-03-03T19:07:14;2.30;99.90
9941;DHT22;5009;50.656;7.188;2023-03-03T19:18:19;2.20;99.90
9941;DHT22;5009;50.656;7.188;2023-03-03T19:23:04;2.20;99.90
9941;DHT22;5009;50.656;7.188;2023-03-03T19:25:30;2.10;99.90
9941;DHT22;5009;50.656;7.188;2023-03-03T19:39:04;2.00;99.90
9941;DHT22;5009;50.656;7.188;2023-03-03T19:47:24;1.90;99.90
9941;DHT22;5009;50.656;7.188;2023-03-03T19:55:59;1.80;99.90
9941;DHT22;5009;50.656;7.188;2023-03-03T19:58:41;1.80;99.90
9941;DHT22;5009;50.656;7.188;2023-03-03T20:01:42;1.70;99.90
9941;DHT22;5009;50.656;7.188;2023-03-03T20:06:54;1.60;99.90
9941;DHT22;5009;50.656;7.188;2023-03-03T20:09:47;1.60;99.90
9941;DHT22;5009;50.656;7.188;2023-03-03T20:15:11;1.60;99.90
9941;DHT22;5009;50.656;7.188;2023-03-03T20:17:50;1.50;99.90
9941;DHT22;5009;50.656;7.188;2023-03-03T20:25:48;1.30;99.90
9941;DHT22;5009;50.656;7.188;2023-03-03T20:31:44;1.30;99.90
9941;DHT22;5009;50.656;7.188;2023-03-03T20:34:35;1.30;99.90
9941;DHT22;5009;50.656;7.188;2023-03-03T20:37:12;1.20;99.90
9941;DHT22;5009;50.656;7.188;2023-03-03T20:40:16;1.20;99.90
9941;DHT22;5009;50.656;7.188;2023-03-03T20:50:54;1.10;99.90
9941;DHT22;5009;50.656;7.188;2023-03-03T20:56:15;1.00;99.90
9941;DHT22;5009;50.656;7.188;2023-03-03T21:04:21;1.00;99.90
9941;DHT22;5009;50.656;7.188;2023-03-03T21:06:47;1.00;99.90
9941;DHT22;5009;50.656;7.188;2023-03-03T21:09:31;0.90;99.90
9941;DHT22;5009;50.656;7.188;2023-03-03T21:11:58;0.90;99.90
9941;DHT22;5009;50.656;7.188;2023-03-03T21:14:30;0.90;99.90
9941;DHT22;5009;50.656;7.188;2023-03-03T21:16:57;0.90;99.90
9941;DHT22;5009;50.656;7.188;2023-03-03T21:19:31;0.90;99.90
9941;DHT22;5009;50.656;7.188;2023-03-03T21:21:58;0.90;99.90
9941;DHT22;5009;50.656;7.188;2023-03-03T21:24:55;0.90;99.90
9941;DHT22;5009;50.656;7.188;2023-03-03T21:27:29;0.80;99.90
9941;DHT22;5009;50.656;7.188;2023-03-03T21:30:13;0.70;99.90
9941;DHT22;5009;50.656;7.188;2023-03-03T21:32:44;0.70;99.90
9941;DHT22;5009;50.656;7.188;2023-03-03T21:35:15;0.70;99.90
9941;DHT22;5009;50.656;7.188;2023-03-03T21:40:23;0.80;99.90
9941;DHT22;5009;50.656;7.188;2023-03-03T21:42:51;0.90;99.90
9941;DHT22;5009;50.656;7.188;2023-03-03T21:45:17;0.80;99.90
9941;DHT22;5009;50.656;7.188;2023-03-03T21:47:46;0.80;99.90
9941;DHT22;5009;50.656;7.188;2023-03-03T21:50:13;0.80;99.90
9941;DHT22;5009;50.656;7.188;2023-03-03T21:52:39;0.60;99.90
9941;DHT22;5009;50.656;7.188;2023-03-03T21:55:04;0.70;99.90
9941;DHT22;5009;50.656;7.188;2023-03-03T21:57:30;0.70;99.90
9941;DHT22;5009;50.656;7.188;2023-03-03T21:59:56;0.80;99.90
